sensor_id;sensor_type;location;lat;lon;timestamp;temperature;humidity
8463;DHT22;4268;52.506;13.462;2023-10-31T00:00:38;12.40;99.90
8463;DHT22;4268;52.506;13.462;2023-10-31T00:03:04;12.50;99.90
8463;DHT22;4268;52.506;13.462;2023-10-31T00:05:29;12.50;99.90
8463;DHT22;4268;52.506;13.462;2023-10-31T00:07:55;12.50;99.90
8463;DHT22;4268;52.506;13.462;2023-10-31T00:10:20;12.50;99.90
8463;DHT22;4268;52.506;13.462;2023-10-31T00:12:46;12.40;99.90
8463;DHT22;4268;52.506;13.462;2023-10-31T00:15:11;12.40;99.90
8463;DHT22;4268;52.506;13.462;2023-10-31T00:17:37;12.40;99.90
8463;DHT22;4268;52.506;13.462;2023-10-31T00:20:04;12.40;99.90
8463;DHT22;4268;52.506;13.462;2023-10-31T00:22:30;12.40;99.90
8463;DHT22;4268;52.506;13.462;2023-10-31T00:24:56;12.40;99.90
8463;DHT22;4268;52.506;13.462;2023-10-31T00:27:21;12.40;99.90
8463;DHT22;4268;52.506;13.462;2023-10-31T00:29:47;12.30;99.90
8463;DHT22;4268;52.506;13.462;2023-10-31T00:32:12;12.40;99.90
8463;DHT22;4268;52.506;13.462;2023-10-31T00:34:38;12.30;99.90
8463;DHT22;4268;52.506;13.462;2023-10-31T00:37:03;12.10;99.90
8463;DHT22;4268;52.506;13.462;2023-10-31T00:39:29;12.30;99.90
8463;DHT22;4268;52.506;13.462;2023-10-31T00:41:55;12.30;99.90
8463;DHT22;4268;52.506;13.462;2023-10-31T00:44:20;12.30;99.90
8463;DHT22;4268;52.506;13.462;2023-10-31T00:46:46;12.30;99.90
8463;DHT22;4268;52.506;13.462;2023-10-31T00:49:11;12.30;99.90
8463;DHT22;4268;52.506;13.462;2023-10-31T00:51:37;12.30;99.90
8463;DHT22;4268;52.506;13.462;2023-10-31T00:54:02;12.30;99.90
8463;DHT22;4268;52.506;13.462;2023-10-31T00:56:28;12.30;99.90
8463;DHT22;4268;52.506;13.462;2023-10-31T00:58:53;12.30;99.90
8463;DHT22;4268;52.506;13.462;2023-10-31T01:01:19;12.30;99.90
8463;DHT22;4268;52.506;13.462;2023-10-31T01:03:44;12.20;99.90
8463;DHT22;4268;52.506;13.462;2023-10-31T01:06:10;12.20;99.90
8463;DHT22;4268;52.506;13.462;2023-10-31T01:08:35;12.20;99.90
8463;DHT22;4268;52.506;13.462;2023-10-31T01:11:01;12.20;99.90
8463;DHT22;4268;52.506;13.462;2023-10-31T01:13:26;12.20;99.90
8463;DHT22;4268;52.506;13.462;2023-10-31T01:15:52;12.20;99.90
8463;DHT22;4268;52.506;13.462;2023-10-31T01:18:17;12.20;99.90
8463;DHT22;4268;52.506;13.462;2023-10-31T01:20:43;12.20;99.90
8463;DHT22;4268;52.506;13.462;2023-10-31T01:23:08;12.10;99.90
8463;DHT22;4268;52.506;13.462;2023-10-31T01:25:34;12.20;99.90
8463;DHT22;4268;52.506;13.462;2023-10-31T01:27:59;12.20;99.90
8463;DHT22;4268;52.506;13.462;2023-10-31T01:30:25;12.20;99.90
8463;DHT22;4268;52.506;13.462;2023-10-31T01:32:51;12.20;99.90
8463;DHT22;4268;52.506;13.462;2023-10-31T01:35:16;12.10;99.90
8463;DHT22;4268;52.506;13.462;2023-10-31T01:37:42;12.10;99.90
8463;DHT22;4268;52.506;13.462;2023-10-31T01:40:07;12.20;99.90
8463;DHT22;4268;52.506;13.462;2023-10-31T01:42:33;12.20;99.90
8463;DHT22;4268;52.506;13.462;2023-10-31T01:44:59;11.50;99.90
8463;DHT22;4268;52.506;13.462;2023-10-31T01:47:24;12.10;99.90
8463;DHT22;4268;52.506;13.462;2023-10-31T01:49:51;12.10;99.90
8463;DHT22;4268;52.506;13.462;2023-10-31T01:52:17;12.10;99.90
8463;DHT22;4268;52.506;13.462;2023-10-31T01:54:44;12.10;99.90
8463;DHT22;4268;52.506;13.462;2023-10-31T01:57:10;12.10;99.90
8463;DHT22;4268;52.506;13.462;2023-10-31T01:59:36;12.10;99.90
8463;DHT22;4268;52.506;13.462;2023-10-31T02:02:02;12.00;99.90
8463;DHT22;4268;52.506;13.462;2023-10-31T02:04:28;12.00;99.90
8463;DHT22;4268;52.506;13.462;2023-10-31T02:06:54;12.10;99.90
8463;DHT22;4268;52.506;13.462;2023-10-31T02:09:20;12.00;99.90
8463;DHT22;4268;52.506;13.462;2023-10-31T02:11:49;12.00;99.90
8463;DHT22;4268;52.506;13.462;2023-10-31T02:14:14;12.00;99.90
8463;DHT22;4268;52.506;13.462;2023-10-31T02:16:40;12.00;99.90
8463;DHT22;4268;52.506;13.462;2023-10-31T02:19:06;12.00;99.90
8463;DHT22;4268;52.506;13.462;2023-10-31T02:21:32;12.00;99.90
8463;DHT22;4268;52.506;13.462;2023-10-31T02:23:58;12.00;99.90
8463;DHT22;4268;52.506;13.462;2023-10-31T02:26:31;12.00;99.90
8463;DHT22;4268;52.506;13.462;2023-10-31T02:28:57;12.00;99.90
8463;DHT22;4268;52.506;13.462;2023-10-31T02:31:23;12.00;99.90
8463;DHT22;4268;52.506;13.462;2023-10-31T02:33:49;12.00;99.90
8463;DHT22;4268;52.506;13.462;2023-10-31T02:36:14;12.00;99.90
8463;DHT22;4268;52.506;13.462;2023-10-31T02:38:40;11.90;99.90
8463;DHT22;4268;52.506;13.462;2023-10-31T02:41:05;11.90;99.90
8463;DHT22;4268;52.506;13.462;2023-10-31T02:43:31;11.90;99.90
8463;DHT22;4268;52.506;13.462;2023-10-31T02:45:56;11.90;99.90
8463;DHT22;4268;52.506;13.462;2023-10-31T02:48:22;11.90;99.90
8463;DHT22;4268;52.506;13.462;2023-10-31T02:50:49;11.90;99.90
8463;DHT22;4268;52.506;13.462;2023-10-31T02:53:14;11.90;99.90
8463;DHT22;4268;52.506;13.462;2023-10-31T02:55:40;11.90;99.90
8463;DHT22;4268;52.506;13.462;2023-10-31T02:58:05;11.90;99.90
8463;DHT22;4268;52.506;13.462;2023-10-31T03:00:31;11.90;99.90
8463;DHT22;4268;52.506;13.462;2023-10-31T03:02:56;11.80;99.90
8463;DHT22;4268;52.506;13.462;2023-10-31T03:05:22;11.90;99.90
8463;DHT22;4268;52.506;13.462;2023-10-31T03:07:47;11.80;99.90
8463;DHT22;4268;52.506;13.462;2023-10-31T03:10:13;11.80;99.90
8463;DHT22;4268;52.506;13.462;2023-10-31T03:12:38;11.80;99.90
8463;DHT22;4268;52.506;13.462;2023-10-31T03:15:04;11.80;99.90
8463;DHT22;4268;52.506;13.462;2023-10-31T03:17:30;11.80;99.90
8463;DHT22;4268;52.506;13.462;2023-10-31T03:19:55;11.80;99.90
8463;DHT22;4268;52.506;13.462;2023-10-31T03:22:21;11.80;99.90
8463;DHT22;4268;52.506;13.462;2023-10-31T03:24:47;11.80;99.90
8463;DHT22;4268;52.506;13.462;2023-10-31T03:27:12;11.80;99.90
8463;DHT22;4268;52.506;13.462;2023-10-31T03:29:38;11.80;99.90
8463;DHT22;4268;52.506;13.462;2023-10-31T03:32:03;11.80;99.90
8463;DHT22;4268;52.506;13.462;2023-10-31T03:34:30;11.80;99.90
8463;DHT22;4268;52.506;13.462;2023-10-31T03:36:55;11.90;99.90
8463;DHT22;4268;52.506;13.462;2023-10-31T03:39:21;11.90;99.90
8463;DHT22;4268;52.506;13.462;2023-10-31T03:41:47;11.90;99.90
8463;DHT22;4268;52.506;13.462;2023-10-31T03:44:12;11.90;99.90
8463;DHT22;4268;52.506;13.462;2023-10-31T03:46:38;11.90;99.90
8463;DHT22;4268;52.506;13.462;2023-10-31T03:49:03;11.90;99.90
8463;DHT22;4268;52.506;13.462;2023-10-31T03:51:29;12.00;99.90
8463;DHT22;4268;52.506;13.462;2023-10-31T03:53:55;11.90;99.90
8463;DHT22;4268;52.506;13.462;2023-10-31T03:56:20;11.90;99.90
8463;DHT22;4268;52.506;13.462;2023-10-31T03:58:46;12.00;99.90
8463;DHT22;4268;52.506;13.462;2023-10-31T04:01:12;12.00;99.90
8463;DHT22;4268;52.506;13.462;2023-10-31T04:03:37;12.00;99.90
8463;DHT22;4268;52.506;13.462;2023-10-31T04:06:03;12.00;99.90
8463;DHT22;4268;52.506;13.462;2023-10-31T04:08:28;12.00;99.90
8463;DHT22;4268;52.506;13.462;2023-10-31T04:10:54;12.00;99.90
8463;DHT22;4268;52.506;13.462;2023-10-31T04:13:19;12.00;99.90
8463;DHT22;4268;52.506;13.462;2023-10-31T04:15:45;11.90;99.90
8463;DHT22;4268;52.506;13.462;2023-10-31T04:18:11;11.90;99.90
8463;DHT22;4268;52.506;13.462;2023-10-31T04:20:36;11.90;99.90
8463;DHT22;4268;52.506;13.462;2023-10-31T04:23:02;11.90;99.90
8463;DHT22;4268;52.506;13.462;2023-10-31T04:25:27;11.90;99.90
8463;DHT22;4268;52.506;13.462;2023-10-31T04:27:54;11.90;99.90
8463;DHT22;4268;52.506;13.462;2023-10-31T04:30:20;11.90;99.90
8463;DHT22;4268;52.506;13.462;2023-10-31T04:32:46;11.90;99.90
8463;DHT22;4268;52.506;13.462;2023-10-31T04:35:12;11.90;99.90
8463;DHT22;4268;52.506;13.462;2023-10-31T04:37:37;11.90;99.90
8463;DHT22;4268;52.506;13.462;2023-10-31T04:40:03;11.90;99.90
8463;DHT22;4268;52.506;13.462;2023-10-31T04:42:28;11.90;99.90
8463;DHT22;4268;52.506;13.462;2023-10-31T04:44:54;12.00;99.90
8463;DHT22;4268;52.506;13.462;2023-10-31T04:47:19;12.00;99.90
8463;DHT22;4268;52.506;13.462;2023-10-31T04:49:45;12.00;99.90
8463;DHT22;4268;52.506;13.462;2023-10-31T04:52:10;12.00;99.90
8463;DHT22;4268;52.506;13.462;2023-10-31T04:54:37;11.90;99.90
8463;DHT22;4268;52.506;13.462;2023-10-31T04:57:03;12.00;99.90
8463;DHT22;4268;52.506;13.462;2023-10-31T04:59:29;12.00;99.90
8463;DHT22;4268;52.506;13.462;2023-10-31T05:01:54;12.00;99.90
8463;DHT22;4268;52.506;13.462;2023-10-31T05:04:20;12.10;99.90
8463;DHT22;4268;52.506;13.462;2023-10-31T05:06:46;12.00;99.90
8463;DHT22;4268;52.506;13.462;2023-10-31T05:09:12;12.10;99.90
8463;DHT22;4268;52.506;13.462;2023-10-31T05:11:38;12.10;99.90
8463;DHT22;4268;52.506;13.462;2023-10-31T05:14:03;12.10;99.90
8463;DHT22;4268;52.506;13.462;2023-10-31T05:16:29;12.10;99.90
8463;DHT22;4268;52.506;13.462;2023-10-31T05:18:55;12.10;99.90
8463;DHT22;4268;52.506;13.462;2023-10-31T05:21:20;12.20;99.90
8463;DHT22;4268;52.506;13.462;2023-10-31T05:23:46;12.20;99.90
8463;DHT22;4268;52.506;13.462;2023-10-31T05:26:12;12.20;99.90
8463;DHT22;4268;52.506;13.462;2023-10-31T05:28:37;12.20;99.90
8463;DHT22;4268;52.506;13.462;2023-10-31T05:31:03;12.20;99.90
8463;DHT22;4268;52.506;13.462;2023-10-31T05:33:28;12.20;99.90
8463;DHT22;4268;52.506;13.462;2023-10-31T05:35:54;12.20;99.90
8463;DHT22;4268;52.506;13.462;2023-10-31T05:38:19;12.20;99.90
8463;DHT22;4268;52.506;13.462;2023-10-31T05:40:45;12.20;99.90
8463;DHT22;4268;52.506;13.462;2023-10-31T05:43:11;12.20;99.90
8463;DHT22;4268;52.506;13.462;2023-10-31T05:45:36;12.20;99.90
8463;DHT22;4268;52.506;13.462;2023-10-31T05:48:02;12.20;99.90
8463;DHT22;4268;52.506;13.462;2023-10-31T05:50:27;12.20;99.90
8463;DHT22;4268;52.506;13.462;2023-10-31T05:52:53;12.20;99.90
8463;DHT22;4268;52.506;13.462;2023-10-31T05:55:18;12.20;99.90
8463;DHT22;4268;52.506;13.462;2023-10-31T05:57:44;12.30;99.90
8463;DHT22;4268;52.506;13.462;2023-10-31T06:00:10;12.30;99.90
8463;DHT22;4268;52.506;13.462;2023-10-31T06:02:36;12.30;99.90
8463;DHT22;4268;52.506;13.462;2023-10-31T06:05:01;12.30;99.90
8463;DHT22;4268;52.506;13.462;2023-10-31T06:07:27;12.30;99.90
8463;DHT22;4268;52.506;13.462;2023-10-31T06:09:52;12.30;99.90
8463;DHT22;4268;52.506;13.462;2023-10-31T06:12:18;12.30;99.90
8463;DHT22;4268;52.506;13.462;2023-10-31T06:14:43;12.30;99.90
8463;DHT22;4268;52.506;13.462;2023-10-31T06:17:09;12.30;99.90
8463;DHT22;4268;52.506;13.462;2023-10-31T06:19:38;12.30;99.90
8463;DHT22;4268;52.506;13.462;2023-10-31T06:22:03;12.30;99.90
8463;DHT22;4268;52.506;13.462;2023-10-31T06:24:29;12.30;99.90
8463;DHT22;4268;52.506;13.462;2023-10-31T06:26:55;12.40;99.90
8463;DHT22;4268;52.506;13.462;2023-10-31T06:29:20;12.40;99.90
8463;DHT22;4268;52.506;13.462;2023-10-31T06:31:46;12.40;99.90
8463;DHT22;4268;52.506;13.462;2023-10-31T06:34:11;12.40;99.90
8463;DHT22;4268;52.506;13.462;2023-10-31T06:36:37;12.40;99.90
8463;DHT22;4268;52.506;13.462;2023-10-31T06:39:02;12.40;99.90
8463;DHT22;4268;52.506;13.462;2023-10-31T06:41:28;12.50;99.90
8463;DHT22;4268;52.506;13.462;2023-10-31T06:43:53;12.50;99.90
8463;DHT22;4268;52.506;13.462;2023-10-31T06:46:19;12.50;99.90
8463;DHT22;4268;52.506;13.462;2023-10-31T06:48:44;12.50;99.90
8463;DHT22;4268;52.506;13.462;2023-10-31T06:51:11;12.50;99.90
8463;DHT22;4268;52.506;13.462;2023-10-31T06:53:37;12.50;99.90
8463;DHT22;4268;52.506;13.462;2023-10-31T06:56:02;12.60;99.90
8463;DHT22;4268;52.506;13.462;2023-10-31T06:58:28;12.60;99.90
8463;DHT22;4268;52.506;13.462;2023-10-31T07:00:53;12.60;99.90
8463;DHT22;4268;52.506;13.462;2023-10-31T07:03:20;12.60;99.90
8463;DHT22;4268;52.506;13.462;2023-10-31T07:05:46;12.70;99.90
8463;DHT22;4268;52.506;13.462;2023-10-31T07:08:11;12.70;99.90
8463;DHT22;4268;52.506;13.462;2023-10-31T07:10:37;12.80;99.90
8463;DHT22;4268;52.506;13.462;2023-10-31T07:13:02;12.80;99.90
8463;DHT22;4268;52.506;13.462;2023-10-31T07:15:28;12.80;99.90
8463;DHT22;4268;52.506;13.462;2023-10-31T07:17:53;12.80;99.90
8463;DHT22;4268;52.506;13.462;2023-10-31T07:20:19;12.90;99.90
8463;DHT22;4268;52.506;13.462;2023-10-31T07:22:44;12.90;99.90
8463;DHT22;4268;52.506;13.462;2023-10-31T07:25:10;12.90;99.90
8463;DHT22;4268;52.506;13.462;2023-10-31T07:27:36;12.90;99.90
8463;DHT22;4268;52.506;13.462;2023-10-31T07:30:03;12.90;99.90
8463;DHT22;4268;52.506;13.462;2023-10-31T07:32:31;12.80;99.90
8463;DHT22;4268;52.506;13.462;2023-10-31T07:34:57;12.80;99.90
8463;DHT22;4268;52.506;13.462;2023-10-31T07:37:22;12.80;99.90
8463;DHT22;4268;52.506;13.462;2023-10-31T07:39:48;12.70;99.90
8463;DHT22;4268;52.506;13.462;2023-10-31T07:42:14;12.70;99.90
8463;DHT22;4268;52.506;13.462;2023-10-31T07:44:39;12.70;99.90
8463;DHT22;4268;52.506;13.462;2023-10-31T07:47:05;12.80;99.90
8463;DHT22;4268;52.506;13.462;2023-10-31T07:49:31;12.70;99.90
8463;DHT22;4268;52.506;13.462;2023-10-31T07:51:56;12.80;99.90
8463;DHT22;4268;52.506;13.462;2023-10-31T07:54:21;12.80;99.90
8463;DHT22;4268;52.506;13.462;2023-10-31T07:56:47;12.80;99.90
8463;DHT22;4268;52.506;13.462;2023-10-31T07:59:13;12.80;99.90
8463;DHT22;4268;52.506;13.462;2023-10-31T08:01:38;12.80;99.90
8463;DHT22;4268;52.506;13.462;2023-10-31T08:04:04;12.80;99.90
8463;DHT22;4268;52.506;13.462;2023-10-31T08:06:29;12.70;99.90
8463;DHT22;4268;52.506;13.462;2023-10-31T08:08:55;12.70;99.90
8463;DHT22;4268;52.506;13.462;2023-10-31T08:11:21;12.70;99.90
8463;DHT22;4268;52.506;13.462;2023-10-31T08:13:46;12.90;99.90
8463;DHT22;4268;52.506;13.462;2023-10-31T08:16:19;13.10;99.90
8463;DHT22;4268;52.506;13.462;2023-10-31T08:18:45;13.20;99.90
8463;DHT22;4268;52.506;13.462;2023-10-31T08:21:11;13.20;99.90
8463;DHT22;4268;52.506;13.462;2023-10-31T08:23:37;13.20;99.90
8463;DHT22;4268;52.506;13.462;2023-10-31T08:26:03;13.20;99.90
8463;DHT22;4268;52.506;13.462;2023-10-31T08:28:28;13.10;99.90
8463;DHT22;4268;52.506;13.462;2023-10-31T08:30:54;13.10;99.90
8463;DHT22;4268;52.506;13.462;2023-10-31T08:33:19;13.10;99.90
8463;DHT22;4268;52.506;13.462;2023-10-31T08:35:45;13.10;99.90
8463;DHT22;4268;52.506;13.462;2023-10-31T08:38:10;13.10;99.90
8463;DHT22;4268;52.506;13.462;2023-10-31T08:40:36;13.10;99.90
8463;DHT22;4268;52.506;13.462;2023-10-31T08:43:01;13.10;99.90
8463;DHT22;4268;52.506;13.462;2023-10-31T08:45:29;13.20;99.90
8463;DHT22;4268;52.506;13.462;2023-10-31T08:47:55;13.40;99.90
8463;DHT22;4268;52.506;13.462;2023-10-31T08:50:20;13.60;99.90
8463;DHT22;4268;52.506;13.462;2023-10-31T08:52:46;13.70;99.90
8463;DHT22;4268;52.506;13.462;2023-10-31T08:55:11;13.80;99.90
8463;DHT22;4268;52.506;13.462;2023-10-31T08:57:37;13.80;99.90
8463;DHT22;4268;52.506;13.462;2023-10-31T09:00:02;13.80;99.90
8463;DHT22;4268;52.506;13.462;2023-10-31T09:02:30;13.70;99.90
8463;DHT22;4268;52.506;13.462;2023-10-31T09:04:56;13.60;99.90
8463;DHT22;4268;52.506;13.462;2023-10-31T09:07:22;13.50;99.90
8463;DHT22;4268;52.506;13.462;2023-10-31T09:09:47;13.50;99.90
8463;DHT22;4268;52.506;13.462;2023-10-31T09:12:13;13.50;99.90
8463;DHT22;4268;52.506;13.462;2023-10-31T09:14:39;13.50;99.90
8463;DHT22;4268;52.506;13.462;2023-10-31T09:17:04;13.50;99.90
8463;DHT22;4268;52.506;13.462;2023-10-31T09:19:30;13.50;99.90
8463;DHT22;4268;52.506;13.462;2023-10-31T09:21:55;13.50;99.90
8463;DHT22;4268;52.506;13.462;2023-10-31T09:24:21;13.60;99.90
8463;DHT22;4268;52.506;13.462;2023-10-31T09:26:46;13.70;99.90
8463;DHT22;4268;52.506;13.462;2023-10-31T09:29:12;13.70;99.90
8463;DHT22;4268;52.506;13.462;2023-10-31T09:31:37;13.70;99.90
8463;DHT22;4268;52.506;13.462;2023-10-31T09:34:03;13.80;99.90
8463;DHT22;4268;52.506;13.462;2023-10-31T09:36:32;13.80;99.90
8463;DHT22;4268;52.506;13.462;2023-10-31T09:38:59;13.70;99.90
8463;DHT22;4268;52.506;13.462;2023-10-31T09:41:25;13.70;99.90
8463;DHT22;4268;52.506;13.462;2023-10-31T09:43:50;13.60;99.90
8463;DHT22;4268;52.506;13.462;2023-10-31T09:46:16;13.60;99.90
8463;DHT22;4268;52.506;13.462;2023-10-31T09:48:43;13.60;99.90
8463;DHT22;4268;52.506;13.462;2023-10-31T09:51:09;13.50;99.90
8463;DHT22;4268;52.506;13.462;2023-10-31T09:53:37;13.60;99.90
8463;DHT22;4268;52.506;13.462;2023-10-31T09:56:07;13.60;99.90
8463;DHT22;4268;52.506;13.462;2023-10-31T09:58:33;13.50;99.90
8463;DHT22;4268;52.506;13.462;2023-10-31T10:00:59;13.60;99.90
8463;DHT22;4268;52.506;13.462;2023-10-31T10:03:26;13.70;99.90
8463;DHT22;4268;52.506;13.462;2023-10-31T10:05:52;13.70;99.90
8463;DHT22;4268;52.506;13.462;2023-10-31T10:08:18;13.80;99.90
8463;DHT22;4268;52.506;13.462;2023-10-31T10:10:44;13.80;99.90
8463;DHT22;4268;52.506;13.462;2023-10-31T10:13:10;13.70;99.90
8463;DHT22;4268;52.506;13.462;2023-10-31T10:15:47;13.70;99.90
8463;DHT22;4268;52.506;13.462;2023-10-31T10:18:26;13.70;99.90
8463;DHT22;4268;52.506;13.462;2023-10-31T10:21:00;13.70;99.90
8463;DHT22;4268;52.506;13.462;2023-10-31T10:23:27;13.80;99.90
8463;DHT22;4268;52.506;13.462;2023-10-31T10:25:54;14.00;99.90
8463;DHT22;4268;52.506;13.462;2023-10-31T10:28:20;14.00;99.90
8463;DHT22;4268;52.506;13.462;2023-10-31T10:30:49;14.10;99.90
8463;DHT22;4268;52.506;13.462;2023-10-31T10:33:15;14.10;99.90
8463;DHT22;4268;52.506;13.462;2023-10-31T10:35:41;14.20;99.90
8463;DHT22;4268;52.506;13.462;2023-10-31T10:38:12;14.10;99.90
8463;DHT22;4268;52.506;13.462;2023-10-31T10:40:40;14.20;99.90
8463;DHT22;4268;52.506;13.462;2023-10-31T10:43:06;14.20;99.90
8463;DHT22;4268;52.506;13.462;2023-10-31T10:45:38;14.30;99.90
8463;DHT22;4268;52.506;13.462;2023-10-31T10:48:13;14.50;99.90
8463;DHT22;4268;52.506;13.462;2023-10-31T10:50:42;14.60;99.90
8463;DHT22;4268;52.506;13.462;2023-10-31T10:53:24;14.60;99.90
8463;DHT22;4268;52.506;13.462;2023-10-31T10:55:57;14.60;99.90
8463;DHT22;4268;52.506;13.462;2023-10-31T10:58:44;14.70;99.90
8463;DHT22;4268;52.506;13.462;2023-10-31T11:01:11;14.70;99.90
8463;DHT22;4268;52.506;13.462;2023-10-31T11:03:37;14.70;99.90
8463;DHT22;4268;52.506;13.462;2023-10-31T11:06:03;14.60;99.90
8463;DHT22;4268;52.506;13.462;2023-10-31T11:08:30;14.60;99.90
8463;DHT22;4268;52.506;13.462;2023-10-31T11:10:57;14.60;99.90
8463;DHT22;4268;52.506;13.462;2023-10-31T11:13:24;14.70;99.90
8463;DHT22;4268;52.506;13.462;2023-10-31T11:15:53;14.70;99.90
8463;DHT22;4268;52.506;13.462;2023-10-31T11:18:21;14.60;99.90
8463;DHT22;4268;52.506;13.462;2023-10-31T11:20:47;14.60;99.90
8463;DHT22;4268;52.506;13.462;2023-10-31T11:23:13;14.60;99.90
8463;DHT22;4268;52.506;13.462;2023-10-31T11:25:44;14.70;99.90
8463;DHT22;4268;52.506;13.462;2023-10-31T11:28:12;14.70;99.90
8463;DHT22;4268;52.506;13.462;2023-10-31T11:30:38;14.60;99.90
8463;DHT22;4268;52.506;13.462;2023-10-31T11:33:03;14.50;99.90
8463;DHT22;4268;52.506;13.462;2023-10-31T11:35:32;14.40;99.90
8463;DHT22;4268;52.506;13.462;2023-10-31T11:38:02;14.30;99.90
8463;DHT22;4268;52.506;13.462;2023-10-31T11:40:29;14.10;99.90
8463;DHT22;4268;52.506;13.462;2023-10-31T11:42:58;14.10;99.90
8463;DHT22;4268;52.506;13.462;2023-10-31T11:45:43;14.00;99.90
8463;DHT22;4268;52.506;13.462;2023-10-31T11:48:13;13.90;99.90
8463;DHT22;4268;52.506;13.462;2023-10-31T11:50:39;13.90;99.90
8463;DHT22;4268;52.506;13.462;2023-10-31T11:53:08;13.80;99.90
8463;DHT22;4268;52.506;13.462;2023-10-31T11:55:40;13.80;99.90
8463;DHT22;4268;52.506;13.462;2023-10-31T11:58:20;13.90;99.90
8463;DHT22;4268;52.506;13.462;2023-10-31T12:00:47;14.10;99.90
8463;DHT22;4268;52.506;13.462;2023-10-31T12:03:16;14.30;99.90
8463;DHT22;4268;52.506;13.462;2023-10-31T12:05:51;14.50;99.90
8463;DHT22;4268;52.506;13.462;2023-10-31T12:08:35;14.40;99.90
8463;DHT22;4268;52.506;13.462;2023-10-31T12:11:17;14.20;99.90
8463;DHT22;4268;52.506;13.462;2023-10-31T12:13:55;14.10;99.90
8463;DHT22;4268;52.506;13.462;2023-10-31T12:16:24;14.00;99.90
8463;DHT22;4268;52.506;13.462;2023-10-31T12:18:57;14.00;99.90
8463;DHT22;4268;52.506;13.462;2023-10-31T12:21:40;13.90;99.90
8463;DHT22;4268;52.506;13.462;2023-10-31T12:24:07;13.90;99.90
8463;DHT22;4268;52.506;13.462;2023-10-31T12:26:34;13.80;99.90
8463;DHT22;4268;52.506;13.462;2023-10-31T12:29:14;13.80;99.90
8463;DHT22;4268;52.506;13.462;2023-10-31T12:31:48;13.80;99.90
8463;DHT22;4268;52.506;13.462;2023-10-31T12:34:16;13.90;99.90
8463;DHT22;4268;52.506;13.462;2023-10-31T12:36:42;13.90;99.90
8463;DHT22;4268;52.506;13.462;2023-10-31T12:39:11;13.90;99.90
8463;DHT22;4268;52.506;13.462;2023-10-31T12:41:41;14.00;99.90
8463;DHT22;4268;52.506;13.462;2023-10-31T12:44:07;14.10;99.90
8463;DHT22;4268;52.506;13.462;2023-10-31T12:46:39;14.10;99.90
8463;DHT22;4268;52.506;13.462;2023-10-31T12:49:11;14.10;99.90
8463;DHT22;4268;52.506;13.462;2023-10-31T12:51:55;14.10;99.90
8463;DHT22;4268;52.506;13.462;2023-10-31T12:54:30;14.10;99.90
8463;DHT22;4268;52.506;13.462;2023-10-31T12:57:00;14.10;99.90
8463;DHT22;4268;52.506;13.462;2023-10-31T12:59:26;14.10;99.90
8463;DHT22;4268;52.506;13.462;2023-10-31T13:01:52;14.00;99.90
8463;DHT22;4268;52.506;13.462;2023-10-31T13:04:27;14.00;99.90
8463;DHT22;4268;52.506;13.462;2023-10-31T13:07:02;14.00;99.90
8463;DHT22;4268;52.506;13.462;2023-10-31T13:09:32;13.90;99.90
8463;DHT22;4268;52.506;13.462;2023-10-31T13:12:03;13.80;99.90
8463;DHT22;4268;52.506;13.462;2023-10-31T13:14:29;13.80;99.90
8463;DHT22;4268;52.506;13.462;2023-10-31T13:16:54;13.80;99.90
8463;DHT22;4268;52.506;13.462;2023-10-31T13:19:20;13.80;99.90
8463;DHT22;4268;52.506;13.462;2023-10-31T13:21:45;13.70;99.90
8463;DHT22;4268;52.506;13.462;2023-10-31T13:24:11;13.70;99.90
8463;DHT22;4268;52.506;13.462;2023-10-31T13:26:37;13.70;99.90
8463;DHT22;4268;52.506;13.462;2023-10-31T13:29:03;13.70;99.90
8463;DHT22;4268;52.506;13.462;2023-10-31T13:31:28;13.60;99.90
8463;DHT22;4268;52.506;13.462;2023-10-31T13:33:54;13.70;99.90
8463;DHT22;4268;52.506;13.462;2023-10-31T13:36:19;13.70;99.90
8463;DHT22;4268;52.506;13.462;2023-10-31T13:38:46;13.80;99.90
8463;DHT22;4268;52.506;13.462;2023-10-31T13:41:13;13.80;99.90
8463;DHT22;4268;52.506;13.462;2023-10-31T13:43:39;13.80;99.90
8463;DHT22;4268;52.506;13.462;2023-10-31T13:46:04;13.80;99.90
8463;DHT22;4268;52.506;13.462;2023-10-31T13:48:31;13.70;99.90
8463;DHT22;4268;52.506;13.462;2023-10-31T13:50:57;13.70;99.90
8463;DHT22;4268;52.506;13.462;2023-10-31T13:53:22;13.70;99.90
8463;DHT22;4268;52.506;13.462;2023-10-31T13:55:48;13.70;99.90
8463;DHT22;4268;52.506;13.462;2023-10-31T13:58:14;13.70;99.90
8463;DHT22;4268;52.506;13.462;2023-10-31T14:00:39;13.60;99.90
8463;DHT22;4268;52.506;13.462;2023-10-31T14:03:05;13.50;99.90
8463;DHT22;4268;52.506;13.462;2023-10-31T14:05:30;13.50;99.90
8463;DHT22;4268;52.506;13.462;2023-10-31T14:07:56;13.40;99.90
8463;DHT22;4268;52.506;13.462;2023-10-31T14:10:22;13.40;99.90
8463;DHT22;4268;52.506;13.462;2023-10-31T14:12:48;13.30;99.90
8463;DHT22;4268;52.506;13.462;2023-10-31T14:15:14;13.20;99.90
8463;DHT22;4268;52.506;13.462;2023-10-31T14:17:39;13.20;99.90
8463;DHT22;4268;52.506;13.462;2023-10-31T14:20:06;13.10;99.90
8463;DHT22;4268;52.506;13.462;2023-10-31T14:22:31;13.00;99.90
8463;DHT22;4268;52.506;13.462;2023-10-31T14:24:57;13.00;99.90
8463;DHT22;4268;52.506;13.462;2023-10-31T14:27:22;13.00;99.90
8463;DHT22;4268;52.506;13.462;2023-10-31T14:29:48;12.90;99.90
8463;DHT22;4268;52.506;13.462;2023-10-31T14:32:13;12.80;99.90
8463;DHT22;4268;52.506;13.462;2023-10-31T14:34:39;12.80;99.90
8463;DHT22;4268;52.506;13.462;2023-10-31T14:37:04;12.70;99.90
8463;DHT22;4268;52.506;13.462;2023-10-31T14:39:31;12.60;99.90
8463;DHT22;4268;52.506;13.462;2023-10-31T14:41:57;12.60;99.90
8463;DHT22;4268;52.506;13.462;2023-10-31T14:44:22;12.50;99.90
8463;DHT22;4268;52.506;13.462;2023-10-31T14:46:48;12.50;99.90
8463;DHT22;4268;52.506;13.462;2023-10-31T14:49:14;12.40;99.90
8463;DHT22;4268;52.506;13.462;2023-10-31T14:51:39;12.40;99.90
8463;DHT22;4268;52.506;13.462;2023-10-31T14:54:07;12.30;99.90
8463;DHT22;4268;52.506;13.462;2023-10-31T14:56:33;12.30;99.90
8463;DHT22;4268;52.506;13.462;2023-10-31T14:59:00;12.20;99.90
8463;DHT22;4268;52.506;13.462;2023-10-31T15:01:27;12.20;99.90
8463;DHT22;4268;52.506;13.462;2023-10-31T15:03:53;12.20;99.90
8463;DHT22;4268;52.506;13.462;2023-10-31T15:06:21;12.10;99.90
8463;DHT22;4268;52.506;13.462;2023-10-31T15:08:47;12.10;99.90
8463;DHT22;4268;52.506;13.462;2023-10-31T15:11:12;12.10;99.90
8463;DHT22;4268;52.506;13.462;2023-10-31T15:13:38;12.10;99.90
8463;DHT22;4268;52.506;13.462;2023-10-31T15:16:04;12.00;99.90
8463;DHT22;4268;52.506;13.462;2023-10-31T15:18:29;12.00;99.90
8463;DHT22;4268;52.506;13.462;2023-10-31T15:20:55;12.00;99.90
8463;DHT22;4268;52.506;13.462;2023-10-31T15:23:23;12.00;99.90
8463;DHT22;4268;52.506;13.462;2023-10-31T15:25:48;11.90;99.90
8463;DHT22;4268;52.506;13.462;2023-10-31T15:28:14;11.90;99.90
8463;DHT22;4268;52.506;13.462;2023-10-31T15:30:40;11.90;99.90
8463;DHT22;4268;52.506;13.462;2023-10-31T15:33:05;11.80;99.90
8463;DHT22;4268;52.506;13.462;2023-10-31T15:35:30;11.80;99.90
8463;DHT22;4268;52.506;13.462;2023-10-31T15:37:56;11.80;99.90
8463;DHT22;4268;52.506;13.462;2023-10-31T15:40:22;11.70;99.90